Time;durP1;ratioP1;P1;durP2;ratioP2;P2;SDS_P1;SDS_P2;PMS_P1;PMS_P2;Temp;Humidity;BMP_temperature;BMP_pressure;BME280_temperature;BME280_humidity;BME280_pressure;Samples;Min_cycle;Max_cycle;Signal;HPM_P1;HPM_P2
2023/03/11 00:00:31;;;;;;;5.47;2.30;;;1.50;99.90;;;;;;5154738;27;20039;-77
2023/03/11 00:03:01;;;;;;;9.60;2.28;;;1.50;99.90;;;;;;5154777;27;20612;-77
2023/03/11 00:05:30;;;;;;;3.90;1.92;;;2.30;99.90;;;;;;5154766;27;20074;-77
2023/03/11 00:07:57;;;;;;;5.22;2.15;;;1.50;99.90;;;;;;5155497;27;20047;-76
2023/03/11 00:10:27;;;;;;;3.58;1.95;;;1.50;99.90;;;;;;5154674;27;20107;-76
2023/03/11 00:12:53;;;;;;;7.25;2.33;;;2.60;99.90;;;;;;5154945;27;20053;-77
2023/03/11 00:15:19;;;;;;;9.60;2.40;;;1.50;99.90;;;;;;5154455;27;20034;-76
2023/03/11 00:17:47;;;;;;;3.10;2.30;;;2.00;99.90;;;;;;5154603;27;20051;-77
2023/03/11 00:20:28;;;;;;;3.55;1.85;;;1.50;99.90;;;;;;5154382;27;20131;-76
2023/03/11 00:22:54;;;;;;;5.93;2.03;;;1.50;99.90;;;;;;5154508;27;20046;-77
2023/03/11 00:25:21;;;;;;;6.88;2.03;;;1.50;99.90;;;;;;5154322;27;20086;-76
2023/03/11 00:27:47;;;;;;;4.78;2.10;;;1.50;99.90;;;;;;5135063;27;20042;-77
2023/03/11 00:30:14;;;;;;;2.67;1.55;;;1.50;99.90;;;;;;5154302;27;20078;-76
2023/03/11 00:32:40;;;;;;;4.68;2.03;;;1.50;99.90;;;;;;5135971;27;20050;-76
2023/03/11 00:35:06;;;;;;;3.53;1.83;;;1.50;99.90;;;;;;5154306;27;20118;-77
2023/03/11 00:37:32;;;;;;;7.40;2.13;;;1.50;99.90;;;;;;5154550;27;20069;-76
2023/03/11 00:39:58;;;;;;;3.50;1.70;;;1.50;99.90;;;;;;5154189;27;20578;-76
2023/03/11 00:42:24;;;;;;;6.00;1.70;;;1.50;99.90;;;;;;5154607;27;20114;-75
2023/03/11 00:44:50;;;;;;;6.38;1.80;;;1.50;99.90;;;;;;5154536;27;20053;-76
2023/03/11 00:47:16;;;;;;;3.42;1.58;;;2.50;99.90;;;;;;5136010;27;20471;-76
2023/03/11 00:49:42;;;;;;;2.78;1.75;;;1.40;99.90;;;;;;5135581;27;20042;-76
2023/03/11 00:52:08;;;;;;;4.03;1.80;;;1.40;99.90;;;;;;5154135;27;20046;-77
2023/03/11 00:54:33;;;;;;;6.05;1.50;;;1.40;99.90;;;;;;5153862;27;20055;-75
2023/03/11 00:56:59;;;;;;;4.18;1.85;;;1.40;99.90;;;;;;5135685;27;20049;-73
2023/03/11 00:59:25;;;;;;;7.85;1.70;;;2.10;99.90;;;;;;5154110;27;20121;-76
2023/03/11 01:01:51;;;;;;;4.45;1.65;;;1.40;99.90;;;;;;5153878;27;20130;-76
2023/03/11 01:04:16;;;;;;;3.63;1.60;;;1.50;99.90;;;;;;5136097;27;20467;-76
2023/03/11 01:06:42;;;;;;;4.05;1.83;;;1.40;99.90;;;;;;5153994;27;20043;-76
2023/03/11 01:09:08;;;;;;;2.95;1.40;;;1.40;99.90;;;;;;5154250;27;20118;-77
2023/03/11 01:11:33;;;;;;;3.00;1.63;;;1.60;99.90;;;;;;5154192;27;20050;-75
2023/03/11 01:13:59;;;;;;;3.00;1.70;;;2.00;99.90;;;;;;5153672;27;20347;-76
2023/03/11 01:16:25;;;;;;;5.78;2.00;;;1.40;99.90;;;;;;5118804;27;20058;-76
2023/03/11 01:18:50;;;;;;;6.57;1.67;;;1.40;99.90;;;;;;5153752;27;20049;-76
2023/03/11 01:21:16;;;;;;;2.70;1.50;;;1.50;99.90;;;;;;5136076;27;20397;-76
2023/03/11 01:23:42;;;;;;;6.40;1.55;;;1.50;99.90;;;;;;5136146;27;20043;-76
2023/03/11 01:26:08;;;;;;;4.60;1.40;;;1.50;99.90;;;;;;5154604;27;20523;-76
2023/03/11 01:28:33;;;;;;;4.28;1.40;;;1.60;99.90;;;;;;5154657;27;20041;-76
2023/03/11 01:30:59;;;;;;;3.13;1.83;;;1.60;99.90;;;;;;5136087;27;20494;-76
2023/03/11 01:33:25;;;;;;;1.70;1.58;;;1.50;99.90;;;;;;5153921;27;20039;-76
2023/03/11 01:35:51;;;;;;;2.92;1.52;;;1.80;99.90;;;;;;5154334;27;20053;-76
2023/03/11 01:38:17;;;;;;;1.95;1.48;;;1.50;99.90;;;;;;5135768;27;20038;-76
2023/03/11 01:40:48;;;;;;;2.55;1.73;;;1.60;99.90;;;;;;5157282;27;20079;-76
2023/03/11 01:43:45;;;;;;;6.97;1.52;;;1.50;99.90;;;;;;5139878;27;20118;-76
2023/03/11 01:46:23;;;;;;;5.15;1.48;;;1.50;99.90;;;;;;5157603;27;20072;-76
2023/03/11 01:48:57;;;;;;;4.28;1.55;;;1.50;99.90;;;;;;5158266;27;20129;-77
2023/03/11 01:51:37;;;;;;;5.03;1.83;;;1.60;99.90;;;;;;5157665;27;20050;-76
2023/03/11 01:54:17;;;;;;;3.78;1.75;;;1.50;99.90;;;;;;5157287;27;20039;-76
2023/03/11 01:56:44;;;;;;;5.15;1.80;;;1.50;99.90;;;;;;5138883;27;20043;-77
2023/03/11 01:59:13;;;;;;;4.35;1.48;;;2.00;99.90;;;;;;5157533;27;20093;-77
2023/03/11 02:01:47;;;;;;;4.35;1.45;;;1.50;99.90;;;;;;5157236;27;20495;-77
2023/03/11 02:04:14;;;;;;;4.90;1.80;;;1.50;99.90;;;;;;5139111;27;20514;-77
2023/03/11 02:06:41;;;;;;;3.30;1.30;;;2.30;99.90;;;;;;5139303;27;20043;-76
2023/03/11 02:09:07;;;;;;;3.72;2.83;;;1.50;99.90;;;;;;5157292;27;20123;-77
2023/03/11 02:11:33;;;;;;;3.08;2.35;;;1.40;99.90;;;;;;5139129;27;20129;-77
2023/03/11 02:14:03;;;;;;;5.63;1.50;;;1.40;99.90;;;;;;5157153;27;20088;-77
2023/03/11 02:16:29;;;;;;;2.17;1.98;;;1.40;99.90;;;;;;5157742;27;20546;-77
2023/03/11 02:18:58;;;;;;;1.98;1.23;;;1.30;99.90;;;;;;5157255;27;20085;-77
2023/03/11 02:21:28;;;;;;;2.28;1.45;;;1.30;99.90;;;;;;5156710;27;20479;-76
2023/03/11 02:24:08;;;;;;;2.08;1.23;;;1.20;99.90;;;;;;5157046;27;20499;-76
2023/03/11 02:26:42;;;;;;;2.42;1.27;;;1.70;99.90;;;;;;5156965;27;20047;-76
2023/03/11 02:29:09;;;;;;;3.10;1.42;;;1.20;99.90;;;;;;5156901;27;20369;-76
2023/03/11 02:31:38;;;;;;;1.85;1.23;;;1.10;99.90;;;;;;5157435;27;20187;-76
2023/03/11 02:34:06;;;;;;;5.22;1.55;;;1.20;99.90;;;;;;5138912;27;20054;-77
2023/03/11 02:36:40;;;;;;;2.53;1.30;;;1.20;99.90;;;;;;5156714;27;20074;-76
2023/03/11 02:39:07;;;;;;;3.55;1.42;;;1.70;99.90;;;;;;5156772;27;20199;-77
2023/03/11 02:41:37;;;;;;;5.78;2.63;;;1.10;99.90;;;;;;5156776;27;20062;-76
2023/03/11 02:44:05;;;;;;;2.75;1.30;;;1.70;99.90;;;;;;5157252;27;20043;-77
2023/03/11 02:46:31;;;;;;;7.47;1.45;;;1.00;99.90;;;;;;5104242;27;20495;-76
2023/03/11 02:48:58;;;;;;;2.50;1.63;;;1.60;99.90;;;;;;5156889;27;20042;-76
2023/03/11 02:51:24;;;;;;;4.90;1.17;;;1.10;99.90;;;;;;5155510;27;20051;-76
2023/03/11 02:53:56;;;;;;;1.60;1.30;;;1.10;99.90;;;;;;5156328;27;20130;-76
2023/03/11 02:56:22;;;;;;;3.92;1.48;;;2.10;99.90;;;;;;5156502;27;20050;-76
2023/03/11 02:58:47;;;;;;;2.67;1.60;;;1.20;99.90;;;;;;5156244;27;20126;-76
2023/03/11 03:01:13;;;;;;;3.30;1.75;;;1.10;99.90;;;;;;5156505;27;20078;-76
2023/03/11 03:03:39;;;;;;;4.30;1.40;;;1.00;99.90;;;;;;5155863;27;20043;-76
2023/03/11 03:06:05;;;;;;;5.25;1.45;;;0.80;99.90;;;;;;5156363;27;20042;-76
2023/03/11 03:08:31;;;;;;;3.45;1.60;;;0.80;99.90;;;;;;5156227;27;20610;-76
2023/03/11 03:10:58;;;;;;;1.88;1.27;;;0.70;99.90;;;;;;5137414;27;20049;-76
2023/03/11 03:13:25;;;;;;;3.05;1.30;;;0.60;99.90;;;;;;5156008;27;20086;-76
2023/03/11 03:15:51;;;;;;;4.60;1.50;;;0.50;99.90;;;;;;5137267;27;20076;-76
2023/03/11 03:18:17;;;;;;;3.65;1.25;;;1.80;99.90;;;;;;5155971;27;20495;-76
2023/03/11 03:20:42;;;;;;;1.77;1.08;;;0.70;99.90;;;;;;5155601;27;20049;-76
2023/03/11 03:23:08;;;;;;;3.35;1.77;;;0.50;99.90;;;;;;5155643;27;20053;-76
2023/03/11 03:25:34;;;;;;;4.22;1.60;;;1.80;99.90;;;;;;5155443;27;20103;-76
2023/03/11 03:28:00;;;;;;;1.90;1.42;;;0.90;99.90;;;;;;5155438;27;20043;-76
2023/03/11 03:30:28;;;;;;;2.78;1.80;;;1.10;99.90;;;;;;5137356;27;20046;-76
2023/03/11 03:32:54;;;;;;;3.22;1.38;;;0.20;99.90;;;;;;5155542;27;20047;-76
2023/03/11 03:35:20;;;;;;;3.53;1.80;;;0.20;99.90;;;;;;5155373;27;20049;-76
2023/03/11 03:37:45;;;;;;;3.20;1.45;;;0.50;99.90;;;;;;5155335;27;20050;-76
2023/03/11 03:40:12;;;;;;;2.90;1.65;;;0.10;99.90;;;;;;5154878;27;20054;-76
2023/03/11 03:42:38;;;;;;;1.52;0.98;;;0.10;99.90;;;;;;5155190;27;20050;-76
2023/03/11 03:45:07;;;;;;;2.97;1.55;;;1.30;99.90;;;;;;5155175;27;20091;-76
2023/03/11 03:47:33;;;;;;;1.98;1.20;;;0.10;99.90;;;;;;5155007;27;20397;-76
2023/03/11 03:49:59;;;;;;;3.83;1.50;;;0.40;99.90;;;;;;5155026;27;20087;-76
2023/03/11 03:52:25;;;;;;;2.35;1.90;;;0.00;99.90;;;;;;5155068;27;20043;-76
2023/03/11 03:54:50;;;;;;;4.45;1.50;;;0.20;99.90;;;;;;5136279;27;20058;-76
2023/03/11 03:57:17;;;;;;;3.22;1.35;;;0.00;99.90;;;;;;5155170;27;20053;-76
2023/03/11 03:59:42;;;;;;;5.57;2.05;;;0.00;99.90;;;;;;5154792;27;20050;-76
2023/03/11 04:02:08;;;;;;;2.53;1.20;;;-0.10;99.90;;;;;;5154348;27;20458;-77
2023/03/11 04:04:34;;;;;;;2.00;1.27;;;0.20;99.90;;;;;;5154139;27;20046;-76
2023/03/11 04:06:59;;;;;;;2.10;1.65;;;-0.30;99.90;;;;;;5154666;27;20045;-76
2023/03/11 04:09:25;;;;;;;5.85;1.70;;;-0.40;99.90;;;;;;5154590;27;20126;-76
2023/03/11 04:11:51;;;;;;;4.78;1.95;;;-0.50;99.90;;;;;;5154499;27;20492;-76
2023/03/11 04:14:16;;;;;;;2.65;1.75;;;-0.20;99.90;;;;;;5136262;27;20074;-76
2023/03/11 04:16:42;;;;;;;1.95;1.25;;;-0.70;99.90;;;;;;5154870;27;20099;-76
2023/03/11 04:19:08;;;;;;;2.47;1.65;;;0.80;99.90;;;;;;5154932;27;20049;-76
2023/03/11 04:21:34;;;;;;;5.70;1.73;;;-0.70;99.90;;;;;;5154688;27;20049;-76
2023/03/11 04:24:00;;;;;;;2.35;1.70;;;-0.80;99.90;;;;;;5155110;27;20095;-76
2023/03/11 04:26:27;;;;;;;2.70;1.98;;;-0.90;99.90;;;;;;5136590;27;20047;-76
2023/03/11 04:28:53;;;;;;;2.25;1.33;;;0.00;99.90;;;;;;5154724;27;20046;-76
2023/03/11 04:31:18;;;;;;;1.83;1.50;;;0.80;99.90;;;;;;5154480;27;20046;-76
2023/03/11 04:33:44;;;;;;;1.98;1.80;;;-0.80;99.90;;;;;;5136438;27;20125;-76
2023/03/11 04:36:11;;;;;;;4.10;2.00;;;-0.70;99.90;;;;;;5155037;27;20047;-76
2023/03/11 04:38:38;;;;;;;4.13;1.52;;;-0.50;99.90;;;;;;5136652;27;20448;-76
2023/03/11 04:41:05;;;;;;;2.25;1.50;;;-0.30;99.90;;;;;;5136410;27;20050;-76
2023/03/11 04:43:31;;;;;;;3.78;1.98;;;-0.50;99.90;;;;;;5154523;27;20401;-75
2023/03/11 04:45:57;;;;;;;2.53;1.52;;;0.50;99.90;;;;;;5136522;27;20062;-75
2023/03/11 04:48:23;;;;;;;3.38;1.88;;;-0.50;99.90;;;;;;5154514;27;20073;-75
2023/03/11 04:50:49;;;;;;;6.93;1.88;;;0.40;99.90;;;;;;5154493;27;20062;-75
2023/03/11 04:53:15;;;;;;;2.10;1.35;;;0.80;99.90;;;;;;5135748;27;20108;-75
2023/03/11 04:55:41;;;;;;;2.55;1.17;;;-0.40;99.90;;;;;;5154728;27;20054;-75
2023/03/11 04:58:06;;;;;;;2.47;1.75;;;-0.40;99.90;;;;;;5154567;27;20451;-75
2023/03/11 05:00:32;;;;;;;5.47;1.60;;;-0.50;99.90;;;;;;5154286;27;20034;-75
2023/03/11 05:02:58;;;;;;;2.38;1.55;;;0.50;99.90;;;;;;5154624;27;20133;-76
2023/03/11 05:05:23;;;;;;;4.10;1.70;;;0.10;99.90;;;;;;5154079;27;20043;-75
2023/03/11 05:07:49;;;;;;;2.65;1.83;;;-0.50;99.90;;;;;;5153874;27;20046;-75
2023/03/11 05:10:21;;;;;;;3.17;1.58;;;-0.70;99.90;;;;;;5154248;27;20050;-75
2023/03/11 05:12:48;;;;;;;4.00;1.50;;;-0.80;99.90;;;;;;5135968;27;20117;-76
2023/03/11 05:15:13;;;;;;;4.32;1.80;;;-0.90;99.90;;;;;;5121536;27;20452;-75
2023/03/11 05:17:39;;;;;;;2.03;1.42;;;-0.90;99.90;;;;;;5158580;27;20043;-76
2023/03/11 05:20:06;;;;;;;1.42;1.30;;;-1.00;99.90;;;;;;5158091;27;20506;-76
2023/03/11 05:22:33;;;;;;;2.85;1.30;;;-1.10;99.90;;;;;;5158399;27;20055;-76
2023/03/11 05:24:58;;;;;;;1.70;1.27;;;-0.30;99.90;;;;;;5158064;27;20085;-77
2023/03/11 05:27:24;;;;;;;2.70;1.90;;;-0.70;99.90;;;;;;5158040;27;20043;-76
2023/03/11 05:29:50;;;;;;;4.10;1.75;;;-1.20;99.90;;;;;;5157938;27;20110;-76
2023/03/11 05:32:18;;;;;;;2.92;1.50;;;-1.20;99.90;;;;;;5157912;27;20045;-77
2023/03/11 05:34:44;;;;;;;2.58;1.67;;;-0.60;99.90;;;;;;5139656;27;20472;-76
2023/03/11 05:37:10;;;;;;;4.75;2.00;;;-0.60;99.90;;;;;;5158111;27;20046;-76
2023/03/11 05:39:36;;;;;;;1.70;1.50;;;-1.00;99.90;;;;;;5157711;27;20114;-76
2023/03/11 05:42:03;;;;;;;1.75;1.30;;;-1.20;99.90;;;;;;5158320;27;20483;-76
2023/03/11 05:44:29;;;;;;;1.60;1.42;;;-1.20;99.90;;;;;;5157702;27;20058;-77
2023/03/11 05:46:55;;;;;;;2.97;1.65;;;0.30;99.90;;;;;;5122138;27;20165;-77
2023/03/11 05:49:21;;;;;;;2.55;1.80;;;0.80;99.90;;;;;;5157585;27;20111;-76
2023/03/11 05:51:47;;;;;;;4.03;3.20;;;-1.00;99.90;;;;;;5157646;27;20047;-76
2023/03/11 05:54:16;;;;;;;2.08;1.80;;;-0.40;99.90;;;;;;5157380;27;20043;-76
2023/03/11 05:56:43;;;;;;;2.25;1.40;;;-1.00;99.90;;;;;;5122173;27;20403;-76
2023/03/11 05:59:09;;;;;;;1.58;1.48;;;0.70;99.90;;;;;;5157520;27;20042;-76
2023/03/11 06:01:35;;;;;;;2.85;1.75;;;-0.50;99.90;;;;;;5157647;27;20046;-76
2023/03/11 06:04:01;;;;;;;7.82;1.95;;;-0.40;99.90;;;;;;5139256;27;20042;-76
2023/03/11 06:06:27;;;;;;;3.22;1.90;;;-1.10;99.90;;;;;;5157000;27;20134;-76
2023/03/11 06:08:53;;;;;;;3.90;1.65;;;-0.90;99.90;;;;;;5156918;27;20078;-77
2023/03/11 06:11:24;;;;;;;2.25;1.35;;;-1.20;99.90;;;;;;5157123;27;20038;-76
2023/03/11 06:13:53;;;;;;;3.20;1.55;;;-0.10;99.90;;;;;;5157552;27;20053;-76
2023/03/11 06:16:19;;;;;;;1.98;1.50;;;-1.10;99.90;;;;;;5157059;27;20046;-77
2023/03/11 06:18:45;;;;;;;3.25;1.70;;;-1.10;99.90;;;;;;5157243;27;20081;-76
2023/03/11 06:21:16;;;;;;;3.22;1.50;;;0.00;99.90;;;;;;5156971;27;20471;-76
2023/03/11 06:23:42;;;;;;;2.60;1.73;;;-1.20;99.90;;;;;;5138767;27;20046;-76
2023/03/11 06:26:12;;;;;;;3.65;1.98;;;0.60;99.90;;;;;;5156046;27;20462;-76
2023/03/11 06:28:37;;;;;;;2.60;1.63;;;-1.40;99.90;;;;;;5156446;27;20050;-76
2023/03/11 06:31:12;;;;;;;2.03;1.30;;;-1.10;99.90;;;;;;5156734;27;20039;-77
2023/03/11 06:33:38;;;;;;;2.72;1.38;;;-1.10;99.90;;;;;;5138356;27;20115;-77
2023/03/11 06:36:05;;;;;;;3.08;1.65;;;-1.10;99.90;;;;;;5138178;27;20486;-77
2023/03/11 06:38:31;;;;;;;3.22;1.30;;;-1.00;99.90;;;;;;5156990;27;20042;-77
2023/03/11 06:41:02;;;;;;;1.98;1.30;;;-1.00;99.90;;;;;;5138278;27;20117;-76
2023/03/11 06:43:29;;;;;;;4.90;1.67;;;-0.90;99.90;;;;;;5156236;27;20053;-76
2023/03/11 06:45:54;;;;;;;2.70;1.60;;;-1.00;99.90;;;;;;5156742;27;20066;-76
2023/03/11 06:48:20;;;;;;;3.65;1.92;;;-0.90;99.90;;;;;;5156172;27;20500;-77
2023/03/11 06:50:59;;;;;;;6.10;1.70;;;0.30;99.90;;;;;;5137866;27;20058;-77
2023/03/11 06:53:26;;;;;;;6.38;1.92;;;-0.90;99.90;;;;;;5157207;27;20061;-77
2023/03/11 06:56:03;;;;;;;5.93;1.92;;;-0.80;99.90;;;;;;5155847;27;20059;-77
2023/03/11 06:58:30;;;;;;;4.82;2.00;;;-0.80;99.90;;;;;;5138359;27;20406;-77
2023/03/11 07:01:07;;;;;;;2.88;2.20;;;-0.80;99.90;;;;;;5155869;27;20122;-77
2023/03/11 07:03:33;;;;;;;8.18;2.55;;;-0.70;99.90;;;;;;5156305;27;20098;-77
2023/03/11 07:05:59;;;;;;;2.20;1.92;;;-0.40;99.90;;;;;;5155561;27;20495;-77
2023/03/11 07:08:25;;;;;;;1.67;1.58;;;-0.10;99.90;;;;;;5138024;27;20046;-77
2023/03/11 07:11:05;;;;;;;4.70;1.75;;;-0.60;99.90;;;;;;5137891;27;20506;-77
2023/03/11 07:13:32;;;;;;;3.60;1.80;;;0.30;99.90;;;;;;5137387;27;20066;-77
2023/03/11 07:16:09;;;;;;;6.70;1.80;;;-0.50;99.90;;;;;;5155740;27;20043;-77
2023/03/11 07:18:35;;;;;;;4.38;1.90;;;-0.50;99.90;;;;;;5155930;27;20411;-77
2023/03/11 07:21:02;;;;;;;4.95;1.60;;;-0.10;99.90;;;;;;5155678;27;20042;-81
2023/03/11 07:23:28;;;;;;;1.95;1.73;;;-0.30;99.90;;;;;;5137875;27;20467;-77
2023/03/11 07:25:54;;;;;;;3.63;1.92;;;-0.30;99.90;;;;;;5156539;27;20129;-76
2023/03/11 07:28:24;;;;;;;3.00;2.17;;;0.10;99.90;;;;;;5156280;27;20057;-77
2023/03/11 07:30:51;;;;;;;3.08;1.60;;;0.40;99.90;;;;;;5156199;27;20042;-76
2023/03/11 07:33:17;;;;;;;2.00;1.73;;;0.10;99.90;;;;;;5155305;27;20082;-77
2023/03/11 07:35:44;;;;;;;4.80;2.13;;;0.00;99.90;;;;;;5155342;27;20062;-77
2023/03/11 07:38:10;;;;;;;3.45;2.00;;;0.00;99.90;;;;;;5155357;27;20050;-77
2023/03/11 07:40:35;;;;;;;4.50;2.08;;;0.10;99.90;;;;;;5154972;27;20078;-77
2023/03/11 07:43:02;;;;;;;3.63;2.42;;;0.10;99.90;;;;;;5155319;27;20046;-77
2023/03/11 07:45:27;;;;;;;3.83;2.42;;;1.90;99.90;;;;;;5155663;27;20054;-77
2023/03/11 07:47:54;;;;;;;4.15;2.40;;;0.40;99.90;;;;;;5155221;27;20464;-77
2023/03/11 07:50:21;;;;;;;3.58;2.10;;;0.40;99.90;;;;;;5155291;27;20114;-77
2023/03/11 07:52:47;;;;;;;2.95;1.60;;;1.60;99.90;;;;;;5154950;27;20061;-78
2023/03/11 07:55:13;;;;;;;5.60;1.83;;;0.50;99.90;;;;;;5155176;27;20097;-77
2023/03/11 07:57:40;;;;;;;3.00;1.95;;;1.40;99.90;;;;;;5155105;27;20414;-76
2023/03/11 08:00:06;;;;;;;4.53;2.10;;;0.60;99.90;;;;;;5136602;27;20415;-77
2023/03/11 08:02:32;;;;;;;4.38;2.15;;;0.70;99.90;;;;;;5154888;27;20074;-78
2023/03/11 08:04:57;;;;;;;3.55;1.70;;;1.40;99.90;;;;;;5155423;27;20053;-78
2023/03/11 08:07:23;;;;;;;3.83;2.17;;;0.80;99.90;;;;;;5155282;27;20042;-76
2023/03/11 08:09:48;;;;;;;3.30;1.77;;;0.90;99.90;;;;;;5154499;27;20364;-76
2023/03/11 08:12:15;;;;;;;2.97;2.20;;;1.10;99.90;;;;;;5154436;27;20167;-76
2023/03/11 08:14:42;;;;;;;2.58;1.90;;;1.10;99.90;;;;;;5154896;27;20054;-76
2023/03/11 08:17:09;;;;;;;6.82;3.38;;;2.30;99.90;;;;;;5154898;27;20089;-76
2023/03/11 08:19:35;;;;;;;4.10;2.05;;;1.40;99.90;;;;;;5155058;27;20396;-75
2023/03/11 08:22:02;;;;;;;3.05;2.15;;;1.40;99.90;;;;;;5154712;27;20109;-76
2023/03/11 08:24:28;;;;;;;3.63;1.67;;;2.20;99.90;;;;;;5154764;27;20050;-76
2023/03/11 08:26:55;;;;;;;3.60;1.75;;;1.70;99.90;;;;;;5136444;27;20371;-75
2023/03/11 08:29:22;;;;;;;2.03;1.80;;;1.80;99.90;;;;;;5154529;27;20062;-76
2023/03/11 08:31:48;;;;;;;3.28;1.75;;;2.70;99.90;;;;;;5154158;27;20485;-75
2023/03/11 08:34:14;;;;;;;5.30;1.77;;;2.00;99.90;;;;;;5136240;27;20050;-75
2023/03/11 08:36:40;;;;;;;4.35;1.48;;;2.10;99.90;;;;;;5136195;27;20054;-77
2023/03/11 08:39:06;;;;;;;2.20;1.52;;;2.20;99.90;;;;;;5154475;27;20065;-76
2023/03/11 08:41:32;;;;;;;2.60;1.80;;;2.40;99.90;;;;;;5153537;27;20130;-75
2023/03/11 08:43:58;;;;;;;3.17;1.42;;;2.60;99.90;;;;;;5136138;27;20054;-75
2023/03/11 08:46:29;;;;;;;3.25;1.50;;;2.60;99.90;;;;;;5154186;27;20074;-77
2023/03/11 08:48:56;;;;;;;5.22;1.52;;;2.70;99.90;;;;;;5135884;27;20429;-76
2023/03/11 08:51:22;;;;;;;3.60;2.65;;;2.80;99.90;;;;;;5154059;27;20394;-76
2023/03/11 08:53:49;;;;;;;5.22;1.50;;;2.90;99.90;;;;;;5154142;27;20051;-76
2023/03/11 08:56:15;;;;;;;1.98;1.30;;;3.10;99.90;;;;;;5154262;27;20054;-75
2023/03/11 08:58:41;;;;;;;2.47;1.33;;;3.40;99.90;;;;;;5154519;27;20046;-75
2023/03/11 09:01:10;;;;;;;2.72;1.20;;;4.10;99.90;;;;;;5135849;27;20039;-75
2023/03/11 09:03:36;;;;;;;3.22;1.30;;;5.10;99.90;;;;;;5154417;27;20115;-74
2023/03/11 09:06:05;;;;;;;4.68;1.50;;;6.30;99.90;;;;;;5153960;27;20489;-76
2023/03/11 09:08:30;;;;;;;2.40;1.20;;;7.60;99.90;;;;;;5136151;27;20066;-75
2023/03/11 09:10:56;;;;;;;4.18;1.85;;;8.70;99.90;;;;;;5153913;27;20046;-76
2023/03/11 09:13:22;;;;;;;2.80;1.70;;;9.20;99.90;;;;;;5135348;27;20078;-75
2023/03/11 09:15:49;;;;;;;3.47;1.60;;;9.50;99.90;;;;;;5153794;27;20122;-75
2023/03/11 09:18:16;;;;;;;5.18;1.55;;;10.10;99.90;;;;;;5135716;27;20472;-76
2023/03/11 09:20:42;;;;;;;1.27;1.00;;;10.30;99.90;;;;;;5135478;27;20043;-73
2023/03/11 09:23:10;;;;;;;2.47;2.22;;;10.80;99.90;;;;;;5154223;27;20076;-77
2023/03/11 09:25:36;;;;;;;1.30;1.20;;;10.80;99.90;;;;;;5153679;27;20053;-77
2023/03/11 09:28:01;;;;;;;1.35;1.20;;;11.40;99.90;;;;;;5118548;27;20126;-76
2023/03/11 09:30:27;;;;;;;3.45;1.35;;;11.70;99.90;;;;;;5154044;27;20039;-76
2023/03/11 09:32:53;;;;;;;6.03;1.75;;;11.90;99.90;;;;;;5135787;27;20038;-76
2023/03/11 09:35:18;;;;;;;1.45;1.20;;;12.00;99.90;;;;;;5153818;27;20126;-77
2023/03/11 09:37:44;;;;;;;3.15;1.00;;;12.20;99.90;;;;;;5153848;27;20038;-75
2023/03/11 09:40:24;;;;;;;5.43;1.63;;;11.90;99.90;;;;;;5153677;27;20448;-77
2023/03/11 09:43:03;;;;;;;3.25;1.20;;;11.90;99.90;;;;;;5135288;27;20471;-74
2023/03/11 09:45:33;;;;;;;2.33;1.33;;;12.00;99.90;;;;;;5135281;27;20035;-73
2023/03/11 09:48:12;;;;;;;3.45;1.42;;;12.30;99.90;;;;;;5154565;27;20104;-72
2023/03/11 09:51:10;;;;;;;3.15;1.60;;;12.10;99.90;;;;;;5153925;27;20087;-73
2023/03/11 09:53:40;;;;;;;4.03;1.20;;;12.20;99.80;;;;;;5118135;27;20047;-73
2023/03/11 09:56:10;;;;;;;3.22;1.25;;;12.30;99.90;;;;;;5153775;27;20065;-73
2023/03/11 09:58:44;;;;;;;2.00;1.58;;;12.30;99.90;;;;;;5153784;27;20054;-73
2023/03/11 10:01:22;;;;;;;1.58;1.10;;;12.60;99.90;;;;;;5155926;27;20122;-73
2023/03/11 10:03:50;;;;;;;4.57;1.63;;;12.60;99.90;;;;;;5157862;27;20054;-73
2023/03/11 10:06:21;;;;;;;6.20;1.65;;;12.90;99.90;;;;;;5157831;27;20045;-74
2023/03/11 10:09:34;;;;;;;4.50;1.25;;;13.00;99.90;;;;;;5157890;27;20042;-73
2023/03/11 10:12:12;;;;;;;4.10;1.50;;;12.80;93.40;;;;;;5157075;27;20039;-74
2023/03/11 10:14:49;;;;;;;4.78;1.35;;;12.80;99.90;;;;;;5156992;27;20352;-74
2023/03/11 10:17:33;;;;;;;3.45;1.27;;;13.00;99.90;;;;;;5138959;27;20482;-74
2023/03/11 10:20:20;;;;;;;3.85;1.52;;;12.50;93.00;;;;;;5121510;27;20082;-73
2023/03/11 10:23:48;;;;;;;3.85;1.50;;;12.70;97.40;;;;;;5156623;27;20042;-72
2023/03/11 10:26:28;;;;;;;2.92;1.33;;;12.60;94.10;;;;;;5056302;28;20045;-72
2023/03/11 10:29:17;;;;;;;2.90;1.50;;;13.10;97.10;;;;;;5073014;28;20052;-72
2023/03/11 10:32:04;;;;;;;2.20;1.58;;;13.20;99.90;;;;;;5133611;27;20042;-72
2023/03/11 10:34:48;;;;;;;4.30;1.70;;;13.20;96.50;;;;;;5157236;27;20064;-72
2023/03/11 10:37:23;;;;;;;3.88;1.48;;;13.40;98.70;;;;;;5156778;27;20098;-71
2023/03/11 10:39:50;;;;;;;1.50;1.10;;;13.80;99.90;;;;;;5156386;27;20143;-75
2023/03/11 10:42:21;;;;;;;4.38;1.67;;;14.20;99.90;;;;;;5156330;27;20543;-75
2023/03/11 10:44:47;;;;;;;3.20;1.65;;;13.70;99.90;;;;;;5156718;27;20110;-75
2023/03/11 10:47:24;;;;;;;3.28;1.40;;;13.80;99.90;;;;;;5138146;27;20463;-75
2023/03/11 10:49:51;;;;;;;2.42;1.40;;;13.70;98.90;;;;;;5138236;27;20054;-75
2023/03/11 10:52:18;;;;;;;1.83;1.23;;;13.40;99.90;;;;;;5156131;27;20045;-75
2023/03/11 10:54:59;;;;;;;3.45;1.20;;;12.10;99.90;;;;;;5156164;27;20058;-75
2023/03/11 10:57:28;;;;;;;2.20;1.33;;;11.50;99.90;;;;;;5156693;27;20078;-75
2023/03/11 10:59:55;;;;;;;2.15;1.42;;;9.80;99.90;;;;;;5156776;27;20050;-76
2023/03/11 11:02:31;;;;;;;4.18;1.52;;;8.70;99.90;;;;;;5156619;27;20053;-75
2023/03/11 11:05:21;;;;;;;2.67;1.75;;;8.30;99.90;;;;;;5138109;27;20046;-75
2023/03/11 11:08:00;;;;;;;1.77;1.67;;;7.50;99.90;;;;;;5138425;27;20452;-75
2023/03/11 11:10:27;;;;;;;3.53;1.40;;;7.30;99.90;;;;;;5137811;27;20492;-75
2023/03/11 11:12:57;;;;;;;1.30;1.02;;;6.90;99.90;;;;;;5137212;27;20458;-75
2023/03/11 11:15:35;;;;;;;5.13;2.38;;;6.80;99.90;;;;;;5155888;27;20125;-75
2023/03/11 11:18:15;;;;;;;4.28;1.48;;;6.50;99.90;;;;;;5155946;27;20180;-76
2023/03/11 11:20:55;;;;;;;3.70;1.13;;;6.40;99.90;;;;;;5137594;27;20043;-75
2023/03/11 11:23:29;;;;;;;1.80;1.30;;;6.10;99.90;;;;;;5156595;27;20106;-75
2023/03/11 11:25:58;;;;;;;8.68;2.13;;;6.10;99.90;;;;;;5155992;27;20130;-75
2023/03/11 11:28:24;;;;;;;3.17;2.17;;;6.00;99.90;;;;;;5137712;27;20086;-73
2023/03/11 11:30:57;;;;;;;5.25;1.60;;;6.00;99.90;;;;;;5155779;27;20062;-74
2023/03/11 11:33:30;;;;;;;4.13;1.52;;;6.10;99.90;;;;;;5155469;27;20047;-74
2023/03/11 11:36:00;;;;;;;2.83;1.90;;;6.10;99.90;;;;;;5155314;27;20050;-74
2023/03/11 11:38:27;;;;;;;3.35;1.85;;;6.10;99.90;;;;;;5137617;27;20066;-74
2023/03/11 11:40:56;;;;;;;2.75;2.08;;;6.00;99.90;;;;;;5155247;27;20121;-75
2023/03/11 11:43:48;;;;;;;3.53;1.33;;;6.00;99.90;;;;;;5155210;27;20471;-77
2023/03/11 11:46:30;;;;;;;3.50;1.60;;;6.00;99.90;;;;;;5137644;27;20404;-75
2023/03/11 11:49:03;;;;;;;3.65;1.83;;;6.00;99.90;;;;;;5155368;27;20555;-74
2023/03/11 11:51:47;;;;;;;2.92;1.60;;;6.10;99.90;;;;;;5155366;27;20429;-74
2023/03/11 11:54:28;;;;;;;2.60;1.52;;;6.10;99.90;;;;;;5154636;27;20479;-74
2023/03/11 11:56:55;;;;;;;3.53;1.52;;;6.10;99.90;;;;;;5155141;27;20085;-74
2023/03/11 11:59:23;;;;;;;3.25;1.58;;;6.00;99.90;;;;;;5154988;27;20039;-74
2023/03/11 12:02:17;;;;;;;4.32;1.73;;;6.10;99.90;;;;;;5154851;27;20043;-74
2023/03/11 12:04:53;;;;;;;2.08;1.38;;;6.10;99.90;;;;;;5155599;27;20043;-74
2023/03/11 12:07:38;;;;;;;4.38;1.67;;;6.10;99.90;;;;;;5155287;27;20043;-74
2023/03/11 12:10:33;;;;;;;2.30;1.38;;;6.10;99.90;;;;;;5155481;27;20101;-74
2023/03/11 12:13:04;;;;;;;2.28;1.55;;;6.00;99.90;;;;;;5140048;27;20063;-75
2023/03/11 12:15:39;;;;;;;2.88;1.38;;;6.00;99.90;;;;;;5154741;27;20055;-75
2023/03/11 12:18:16;;;;;;;3.67;1.63;;;5.90;99.90;;;;;;5154784;27;20051;-75
2023/03/11 12:20:52;;;;;;;4.57;2.42;;;6.00;99.90;;;;;;5154730;27;20038;-75
2023/03/11 12:23:32;;;;;;;4.15;1.40;;;6.00;99.90;;;;;;5154436;27;20118;-75
2023/03/11 12:26:18;;;;;;;3.08;1.67;;;6.10;99.90;;;;;;5154535;27;20114;-75
2023/03/11 12:29:03;;;;;;;5.63;1.85;;;6.10;99.90;;;;;;5154483;27;20535;-75
2023/03/11 12:31:37;;;;;;;4.03;1.15;;;6.10;99.90;;;;;;5154426;27;20056;-75
2023/03/11 12:34:06;;;;;;;3.25;1.60;;;6.10;99.90;;;;;;5136260;27;20046;-76
2023/03/11 12:36:40;;;;;;;3.92;1.30;;;6.10;99.90;;;;;;5154313;27;20050;-77
2023/03/11 12:39:29;;;;;;;5.22;1.45;;;6.10;99.90;;;;;;5154737;27;20121;-76
2023/03/11 12:42:10;;;;;;;2.95;1.23;;;6.00;99.90;;;;;;5118501;27;20118;-76
2023/03/11 12:44:37;;;;;;;3.83;1.25;;;6.10;99.90;;;;;;5154245;27;20039;-76
2023/03/11 12:47:23;;;;;;;5.80;1.25;;;6.10;99.90;;;;;;5136254;27;20034;-76
2023/03/11 12:49:53;;;;;;;3.40;1.20;;;6.20;99.90;;;;;;5154204;27;20107;-76
2023/03/11 12:52:27;;;;;;;3.30;2.22;;;6.20;99.90;;;;;;5136395;27;20079;-76
2023/03/11 12:54:59;;;;;;;2.20;1.27;;;6.20;99.90;;;;;;5154556;27;20131;-76
2023/03/11 12:57:35;;;;;;;4.53;1.35;;;6.20;99.90;;;;;;5153969;27;20506;-75
2023/03/11 13:00:00;;;;;;;1.52;1.42;;;6.20;99.90;;;;;;5135511;27;20049;-76
2023/03/11 13:02:35;;;;;;;4.95;1.25;;;6.30;99.90;;;;;;5154686;27;20050;-76
2023/03/11 13:05:16;;;;;;;5.50;1.67;;;6.40;99.90;;;;;;5153926;27;20042;-76